sensor_id;sensor_type;location;lat;lon;timestamp;temperature;humidity
12031;DHT22;6076;50.872;4.714;2022-11-21T06:24:45;6.90;99.90
12031;DHT22;6076;50.872;4.714;2022-11-21T06:31:34;6.90;99.90
12031;DHT22;6076;50.872;4.714;2022-11-21T06:37:13;6.80;99.90
12031;DHT22;6076;50.872;4.714;2022-11-21T07:49:45;6.10;99.90
12031;DHT22;6076;50.872;4.714;2022-11-21T07:52:13;6.00;99.90
12031;DHT22;6076;50.872;4.714;2022-11-21T07:54:41;6.10;99.90
12031;DHT22;6076;50.872;4.714;2022-11-21T07:57:09;6.10;99.90
12031;DHT22;6076;50.872;4.714;2022-11-21T08:00:11;6.00;99.90
12031;DHT22;6076;50.872;4.714;2022-11-21T08:06:54;6.00;99.90
12031;DHT22;6076;50.872;4.714;2022-11-21T08:10:00;6.20;99.90
12031;DHT22;6076;50.872;4.714;2022-11-21T08:12:31;6.20;99.90
12031;DHT22;6076;50.872;4.714;2022-11-21T08:14:59;6.20;99.90
12031;DHT22;6076;50.872;4.714;2022-11-21T08:17:26;6.20;99.90
12031;DHT22;6076;50.872;4.714;2022-11-21T08:19:56;6.30;99.90
12031;DHT22;6076;50.872;4.714;2022-11-21T08:22:27;6.30;99.90
12031;DHT22;6076;50.872;4.714;2022-11-21T08:24:55;6.30;99.90
12031;DHT22;6076;50.872;4.714;2022-11-21T08:27:23;6.30;99.90
12031;DHT22;6076;50.872;4.714;2022-11-21T08:29:51;6.30;99.90
12031;DHT22;6076;50.872;4.714;2022-11-21T08:32:22;6.40;99.90
12031;DHT22;6076;50.872;4.714;2022-11-21T08:35:07;6.40;99.90
12031;DHT22;6076;50.872;4.714;2022-11-21T08:44:42;6.50;99.90
12031;DHT22;6076;50.872;4.714;2022-11-21T08:47:17;6.50;99.90
12031;DHT22;6076;50.872;4.714;2022-11-21T08:50:03;6.70;99.90
12031;DHT22;6076;50.872;4.714;2022-11-21T08:52:50;6.60;99.90
12031;DHT22;6076;50.872;4.714;2022-11-21T08:55:55;6.60;99.90
12031;DHT22;6076;50.872;4.714;2022-11-21T08:58:40;6.60;99.90
12031;DHT22;6076;50.872;4.714;2022-11-21T09:01:48;6.60;99.90
12031;DHT22;6076;50.872;4.714;2022-11-21T09:04:49;6.70;99.90
12031;DHT22;6076;50.872;4.714;2022-11-21T09:07:27;6.80;99.90
12031;DHT22;6076;50.872;4.714;2022-11-21T09:10:19;6.90;99.90
12031;DHT22;6076;50.872;4.714;2022-11-21T09:13:28;6.80;99.90
12031;DHT22;6076;50.872;4.714;2022-11-21T09:16:12;6.90;99.90
12031;DHT22;6076;50.872;4.714;2022-11-21T09:22:19;7.20;99.90
12031;DHT22;6076;50.872;4.714;2022-11-21T09:24:53;7.10;99.90
12031;DHT22;6076;50.872;4.714;2022-11-21T09:28:39;7.10;99.90
12031;DHT22;6076;50.872;4.714;2022-11-21T09:31:39;7.20;99.90
12031;DHT22;6076;50.872;4.714;2022-11-21T09:34:10;7.20;99.90
12031;DHT22;6076;50.872;4.714;2022-11-21T09:36:42;7.30;99.90
12031;DHT22;6076;50.872;4.714;2022-11-21T09:39:19;7.20;99.90
12031;DHT22;6076;50.872;4.714;2022-11-21T09:51:51;7.70;99.90
12031;DHT22;6076;50.872;4.714;2022-11-21T09:59:59;8.00;99.90
12031;DHT22;6076;50.872;4.714;2022-11-21T10:14:41;8.10;99.90
12031;DHT22;6076;50.872;4.714;2022-11-21T10:28:19;8.50;99.90
12031;DHT22;6076;50.872;4.714;2022-11-21T10:30:55;8.50;99.90
12031;DHT22;6076;50.872;4.714;2022-11-21T10:33:29;8.40;99.90
12031;DHT22;6076;50.872;4.714;2022-11-21T10:36:06;8.40;99.90
12031;DHT22;6076;50.872;4.714;2022-11-21T10:39:04;8.40;99.90
12031;DHT22;6076;50.872;4.714;2022-11-21T10:41:55;8.30;99.90
12031;DHT22;6076;50.872;4.714;2022-11-21T10:44:31;8.50;99.90
12031;DHT22;6076;50.872;4.714;2022-11-21T10:47:21;8.40;99.90
12031;DHT22;6076;50.872;4.714;2022-11-21T10:49:59;8.50;99.90
12031;DHT22;6076;50.872;4.714;2022-11-21T10:52:30;8.60;99.90
12031;DHT22;6076;50.872;4.714;2022-11-21T10:55:11;8.50;99.90
12031;DHT22;6076;50.872;4.714;2022-11-21T10:57:42;8.50;99.90
12031;DHT22;6076;50.872;4.714;2022-11-21T11:00:26;8.60;99.90
12031;DHT22;6076;50.872;4.714;2022-11-21T11:03:05;8.60;99.90
12031;DHT22;6076;50.872;4.714;2022-11-21T11:05:34;8.70;99.90
12031;DHT22;6076;50.872;4.714;2022-11-21T11:08:05;8.90;99.90
12031;DHT22;6076;50.872;4.714;2022-11-21T11:10:35;9.10;99.90
12031;DHT22;6076;50.872;4.714;2022-11-21T11:13:10;9.10;99.90
12031;DHT22;6076;50.872;4.714;2022-11-21T11:16:02;9.00;99.90
12031;DHT22;6076;50.872;4.714;2022-11-21T11:18:32;8.70;99.90
12031;DHT22;6076;50.872;4.714;2022-11-21T11:21:19;8.60;99.90
12031;DHT22;6076;50.872;4.714;2022-11-21T11:23:51;8.50;99.90
12031;DHT22;6076;50.872;4.714;2022-11-21T11:26:22;8.50;99.90
12031;DHT22;6076;50.872;4.714;2022-11-21T11:28:51;8.40;99.90
12031;DHT22;6076;50.872;4.714;2022-11-21T11:31:22;8.50;99.90
12031;DHT22;6076;50.872;4.714;2022-11-21T11:33:52;8.80;99.90
12031;DHT22;6076;50.872;4.714;2022-11-21T11:36:30;9.00;99.90
12031;DHT22;6076;50.872;4.714;2022-11-21T11:39:13;9.10;99.90
12031;DHT22;6076;50.872;4.714;2022-11-21T11:42:07;9.30;99.90
12031;DHT22;6076;50.872;4.714;2022-11-21T11:45:06;9.30;99.90
12031;DHT22;6076;50.872;4.714;2022-11-21T11:47:55;9.20;99.90
12031;DHT22;6076;50.872;4.714;2022-11-21T12:20:35;9.20;99.90
12031;DHT22;6076;50.872;4.714;2022-11-21T12:23:09;9.20;99.90
12031;DHT22;6076;50.872;4.714;2022-11-21T12:30:00;9.30;99.90
12031;DHT22;6076;50.872;4.714;2022-11-21T12:33:02;9.30;99.90
12031;DHT22;6076;50.872;4.714;2022-11-21T12:46:57;9.50;99.90
12031;DHT22;6076;50.872;4.714;2022-11-21T12:49:32;9.50;99.90
12031;DHT22;6076;50.872;4.714;2022-11-21T12:52:22;9.40;99.90
12031;DHT22;6076;50.872;4.714;2022-11-21T12:55:13;9.40;99.90
12031;DHT22;6076;50.872;4.714;2022-11-21T13:00:46;9.50;99.90
12031;DHT22;6076;50.872;4.714;2022-11-21T13:03:31;9.60;99.90
12031;DHT22;6076;50.872;4.714;2022-11-21T13:06:02;9.50;99.90
12031;DHT22;6076;50.872;4.714;2022-11-21T13:08:35;9.50;99.90
12031;DHT22;6076;50.872;4.714;2022-11-21T13:11:10;9.60;99.90
12031;DHT22;6076;50.872;4.714;2022-11-21T13:14:01;9.60;99.90
12031;DHT22;6076;50.872;4.714;2022-11-21T13:16:32;9.60;99.90
12031;DHT22;6076;50.872;4.714;2022-11-21T13:19:22;9.60;99.90
12031;DHT22;6076;50.872;4.714;2022-11-21T13:21:53;9.80;99.90
12031;DHT22;6076;50.872;4.714;2022-11-21T13:24:56;9.80;99.90
12031;DHT22;6076;50.872;4.714;2022-11-21T13:27:31;9.80;99.90
12031;DHT22;6076;50.872;4.714;2022-11-21T13:30:21;9.70;99.90
12031;DHT22;6076;50.872;4.714;2022-11-21T13:32:51;9.70;99.90
12031;DHT22;6076;50.872;4.714;2022-11-21T13:41:59;9.80;99.90
12031;DHT22;6076;50.872;4.714;2022-11-21T13:44:44;9.70;99.90
12031;DHT22;6076;50.872;4.714;2022-11-21T13:47:30;9.80;99.90
12031;DHT22;6076;50.872;4.714;2022-11-21T13:50:08;9.70;99.90
12031;DHT22;6076;50.872;4.714;2022-11-21T13:52:43;9.60;99.90
12031;DHT22;6076;50.872;4.714;2022-11-21T13:55:33;9.60;99.90
12031;DHT22;6076;50.872;4.714;2022-11-21T13:58:10;9.60;99.90
12031;DHT22;6076;50.872;4.714;2022-11-21T14:01:03;9.60;99.90
12031;DHT22;6076;50.872;4.714;2022-11-21T14:04:21;9.60;99.90
12031;DHT22;6076;50.872;4.714;2022-11-21T14:06:53;9.60;99.90
12031;DHT22;6076;50.872;4.714;2022-11-21T14:09:27;9.60;99.90
12031;DHT22;6076;50.872;4.714;2022-11-21T14:12:02;9.60;99.90
12031;DHT22;6076;50.872;4.714;2022-11-21T14:14:36;9.60;99.90
12031;DHT22;6076;50.872;4.714;2022-11-21T14:17:33;9.60;99.90
12031;DHT22;6076;50.872;4.714;2022-11-21T14:20:17;9.60;99.90
12031;DHT22;6076;50.872;4.714;2022-11-21T14:22:57;9.60;99.90
12031;DHT22;6076;50.872;4.714;2022-11-21T14:25:34;9.60;99.90
12031;DHT22;6076;50.872;4.714;2022-11-21T14:28:10;9.70;99.90
12031;DHT22;6076;50.872;4.714;2022-11-21T14:30:43;9.80;99.90
12031;DHT22;6076;50.872;4.714;2022-11-21T14:33:30;9.70;99.90
12031;DHT22;6076;50.872;4.714;2022-11-21T14:36:02;9.70;99.90
12031;DHT22;6076;50.872;4.714;2022-11-21T14:38:41;9.80;99.90
12031;DHT22;6076;50.872;4.714;2022-11-21T14:45:14;9.70;99.90
12031;DHT22;6076;50.872;4.714;2022-11-21T14:47:49;9.80;99.90
12031;DHT22;6076;50.872;4.714;2022-11-21T14:50:24;9.80;99.90
12031;DHT22;6076;50.872;4.714;2022-11-21T14:52:53;10.00;99.90
12031;DHT22;6076;50.872;4.714;2022-11-21T14:55:27;10.00;99.90
12031;DHT22;6076;50.872;4.714;2022-11-21T14:57:57;10.00;99.90
12031;DHT22;6076;50.872;4.714;2022-11-21T15:00:31;10.00;99.90
12031;DHT22;6076;50.872;4.714;2022-11-21T15:02:59;9.90;99.90
12031;DHT22;6076;50.872;4.714;2022-11-21T15:05:29;9.80;99.90
12031;DHT22;6076;50.872;4.714;2022-11-21T15:08:00;9.80;99.90
12031;DHT22;6076;50.872;4.714;2022-11-21T15:11:04;9.70;99.90
12031;DHT22;6076;50.872;4.714;2022-11-21T15:13:35;9.60;99.90
12031;DHT22;6076;50.872;4.714;2022-11-21T15:16:09;9.50;99.90
12031;DHT22;6076;50.872;4.714;2022-11-21T15:18:40;9.60;99.90
12031;DHT22;6076;50.872;4.714;2022-11-21T15:21:13;9.70;99.90
12031;DHT22;6076;50.872;4.714;2022-11-21T15:23:43;9.60;99.90
12031;DHT22;6076;50.872;4.714;2022-11-21T15:26:27;9.60;99.90
12031;DHT22;6076;50.872;4.714;2022-11-21T15:28:56;9.50;99.90
12031;DHT22;6076;50.872;4.714;2022-11-21T15:31:30;9.40;99.90
12031;DHT22;6076;50.872;4.714;2022-11-21T15:34:00;9.30;99.90
12031;DHT22;6076;50.872;4.714;2022-11-21T15:36:29;9.30;99.90
12031;DHT22;6076;50.872;4.714;2022-11-21T15:39:02;9.30;99.90
12031;DHT22;6076;50.872;4.714;2022-11-21T15:41:32;9.30;99.90
12031;DHT22;6076;50.872;4.714;2022-11-21T15:44:20;9.30;99.90
12031;DHT22;6076;50.872;4.714;2022-11-21T15:46:52;9.30;99.90
12031;DHT22;6076;50.872;4.714;2022-11-21T15:49:20;9.30;99.90
12031;DHT22;6076;50.872;4.714;2022-11-21T15:51:50;9.40;99.90
12031;DHT22;6076;50.872;4.714;2022-11-21T15:54:25;9.30;99.90
12031;DHT22;6076;50.872;4.714;2022-11-21T15:56:53;9.40;99.90
12031;DHT22;6076;50.872;4.714;2022-11-21T15:59:25;9.50;99.90
12031;DHT22;6076;50.872;4.714;2022-11-21T16:01:59;9.60;99.90
12031;DHT22;6076;50.872;4.714;2022-11-21T16:04:28;9.60;99.90
12031;DHT22;6076;50.872;4.714;2022-11-21T16:06:56;9.60;99.90
12031;DHT22;6076;50.872;4.714;2022-11-21T16:09:24;9.60;99.90
12031;DHT22;6076;50.872;4.714;2022-11-21T16:11:52;9.70;99.90
12031;DHT22;6076;50.872;4.714;2022-11-21T16:14:20;9.60;99.90
12031;DHT22;6076;50.872;4.714;2022-11-21T16:16:48;9.60;99.90
12031;DHT22;6076;50.872;4.714;2022-11-21T16:19:17;9.70;99.90
12031;DHT22;6076;50.872;4.714;2022-11-21T16:21:46;9.60;99.90
12031;DHT22;6076;50.872;4.714;2022-11-21T16:24:14;9.60;99.90
12031;DHT22;6076;50.872;4.714;2022-11-21T16:26:42;9.60;99.90
12031;DHT22;6076;50.872;4.714;2022-11-21T16:29:10;9.60;99.90
12031;DHT22;6076;50.872;4.714;2022-11-21T16:31:39;9.50;99.90
12031;DHT22;6076;50.872;4.714;2022-11-21T16:34:07;9.50;99.90
12031;DHT22;6076;50.872;4.714;2022-11-21T16:37:05;9.60;99.90
12031;DHT22;6076;50.872;4.714;2022-11-21T16:40:06;9.60;99.90
12031;DHT22;6076;50.872;4.714;2022-11-21T16:50:33;9.70;99.90
12031;DHT22;6076;50.872;4.714;2022-11-21T16:53:41;9.70;99.90
12031;DHT22;6076;50.872;4.714;2022-11-21T16:56:44;9.60;99.90
12031;DHT22;6076;50.872;4.714;2022-11-21T17:04:15;9.50;99.90
12031;DHT22;6076;50.872;4.714;2022-11-21T17:06:16;9.50;99.90
12031;DHT22;6076;50.872;4.714;2022-11-21T17:08:48;9.60;99.90
12031;DHT22;6076;50.872;4.714;2022-11-21T17:11:28;9.80;99.90
12031;DHT22;6076;50.872;4.714;2022-11-21T17:14:19;9.70;99.90
12031;DHT22;6076;50.872;4.714;2022-11-21T17:20:17;9.60;99.90
12031;DHT22;6076;50.872;4.714;2022-11-21T17:22:58;9.30;99.90
12031;DHT22;6076;50.872;4.714;2022-11-21T17:25:31;9.40;99.90
12031;DHT22;6076;50.872;4.714;2022-11-21T17:27:59;9.40;99.90
12031;DHT22;6076;50.872;4.714;2022-11-21T17:30:27;9.40;99.90
12031;DHT22;6076;50.872;4.714;2022-11-21T17:32:55;9.50;99.90
12031;DHT22;6076;50.872;4.714;2022-11-21T17:35:22;9.50;99.90
12031;DHT22;6076;50.872;4.714;2022-11-21T17:37:49;9.50;99.90
12031;DHT22;6076;50.872;4.714;2022-11-21T17:40:19;9.40;99.90
12031;DHT22;6076;50.872;4.714;2022-11-21T17:42:48;9.40;99.90
12031;DHT22;6076;50.872;4.714;2022-11-21T17:45:15;9.30;99.90
12031;DHT22;6076;50.872;4.714;2022-11-21T17:47:42;9.30;99.90
12031;DHT22;6076;50.872;4.714;2022-11-21T17:50:11;9.20;99.90
12031;DHT22;6076;50.872;4.714;2022-11-21T17:52:38;9.10;99.90
12031;DHT22;6076;50.872;4.714;2022-11-21T17:55:06;9.10;99.90
12031;DHT22;6076;50.872;4.714;2022-11-21T17:57:33;9.10;99.90
12031;DHT22;6076;50.872;4.714;2022-11-21T18:00:03;9.10;99.90
12031;DHT22;6076;50.872;4.714;2022-11-21T18:02:35;9.10;99.90
12031;DHT22;6076;50.872;4.714;2022-11-21T18:05:07;9.20;99.90
12031;DHT22;6076;50.872;4.714;2022-11-21T18:07:46;9.10;99.90
12031;DHT22;6076;50.872;4.714;2022-11-21T18:14:56;9.10;99.90
12031;DHT22;6076;50.872;4.714;2022-11-21T18:18:01;9.20;99.90
12031;DHT22;6076;50.872;4.714;2022-11-21T18:20:29;9.20;99.90
12031;DHT22;6076;50.872;4.714;2022-11-21T18:26:15;9.10;99.90
12031;DHT22;6076;50.872;4.714;2022-11-21T18:28:43;9.10;99.90
12031;DHT22;6076;50.872;4.714;2022-11-21T18:31:20;9.10;99.90
12031;DHT22;6076;50.872;4.714;2022-11-21T18:41:50;9.00;99.90
12031;DHT22;6076;50.872;4.714;2022-11-21T18:44:35;9.10;99.90
12031;DHT22;6076;50.872;4.714;2022-11-21T18:47:15;8.90;99.90
12031;DHT22;6076;50.872;4.714;2022-11-21T18:56:40;9.10;99.90
12031;DHT22;6076;50.872;4.714;2022-11-21T18:59:09;9.00;99.90
12031;DHT22;6076;50.872;4.714;2022-11-21T19:01:36;9.00;99.90
12031;DHT22;6076;50.872;4.714;2022-11-21T19:04:05;9.00;99.90
12031;DHT22;6076;50.872;4.714;2022-11-21T19:06:34;9.00;99.90
12031;DHT22;6076;50.872;4.714;2022-11-21T19:09:01;8.90;99.90
12031;DHT22;6076;50.872;4.714;2022-11-21T19:11:29;8.90;99.90
12031;DHT22;6076;50.872;4.714;2022-11-21T19:13:57;8.90;99.90
12031;DHT22;6076;50.872;4.714;2022-11-21T19:16:28;8.90;99.90
12031;DHT22;6076;50.872;4.714;2022-11-21T19:18:59;9.00;99.90
12031;DHT22;6076;50.872;4.714;2022-11-21T19:21:26;8.90;99.90
12031;DHT22;6076;50.872;4.714;2022-11-21T19:23:54;8.90;99.90
12031;DHT22;6076;50.872;4.714;2022-11-21T19:26:21;9.00;99.90
12031;DHT22;6076;50.872;4.714;2022-11-21T19:28:48;9.00;99.90
12031;DHT22;6076;50.872;4.714;2022-11-21T19:31:17;8.90;99.90
12031;DHT22;6076;50.872;4.714;2022-11-21T19:33:46;8.80;99.90
12031;DHT22;6076;50.872;4.714;2022-11-21T19:36:15;8.80;99.90
12031;DHT22;6076;50.872;4.714;2022-11-21T19:38:43;8.80;99.90
12031;DHT22;6076;50.872;4.714;2022-11-21T19:41:12;8.80;99.90
12031;DHT22;6076;50.872;4.714;2022-11-21T19:43:43;8.90;99.90
12031;DHT22;6076;50.872;4.714;2022-11-21T19:46:11;8.90;99.90
12031;DHT22;6076;50.872;4.714;2022-11-21T19:48:39;8.90;99.90
12031;DHT22;6076;50.872;4.714;2022-11-21T19:51:08;8.90;99.90
12031;DHT22;6076;50.872;4.714;2022-11-21T19:53:37;8.90;99.90
12031;DHT22;6076;50.872;4.714;2022-11-21T19:56:09;8.90;99.90
12031;DHT22;6076;50.872;4.714;2022-11-21T19:58:36;8.90;99.90
12031;DHT22;6076;50.872;4.714;2022-11-21T20:01:06;9.00;99.90
12031;DHT22;6076;50.872;4.714;2022-11-21T20:03:35;8.90;99.90
12031;DHT22;6076;50.872;4.714;2022-11-21T20:06:04;8.90;99.90
12031;DHT22;6076;50.872;4.714;2022-11-21T20:08:34;8.90;99.90
12031;DHT22;6076;50.872;4.714;2022-11-21T20:11:05;8.90;99.90
12031;DHT22;6076;50.872;4.714;2022-11-21T20:13:36;8.80;99.90
12031;DHT22;6076;50.872;4.714;2022-11-21T20:16:03;8.70;99.90
12031;DHT22;6076;50.872;4.714;2022-11-21T20:18:31;8.70;99.90
12031;DHT22;6076;50.872;4.714;2022-11-21T20:21:06;8.80;99.90
12031;DHT22;6076;50.872;4.714;2022-11-21T20:23:36;8.70;99.90
12031;DHT22;6076;50.872;4.714;2022-11-21T20:26:04;8.60;99.90
12031;DHT22;6076;50.872;4.714;2022-11-21T20:28:33;8.60;99.90
12031;DHT22;6076;50.872;4.714;2022-11-21T20:31:05;8.60;99.90
12031;DHT22;6076;50.872;4.714;2022-11-21T20:33:35;8.60;99.90
12031;DHT22;6076;50.872;4.714;2022-11-21T20:36:06;8.60;99.90
12031;DHT22;6076;50.872;4.714;2022-11-21T20:38:36;8.60;99.90
12031;DHT22;6076;50.872;4.714;2022-11-21T20:41:04;8.60;99.90
12031;DHT22;6076;50.872;4.714;2022-11-21T20:43:31;8.50;99.90
12031;DHT22;6076;50.872;4.714;2022-11-21T20:46:02;8.30;99.90
12031;DHT22;6076;50.872;4.714;2022-11-21T20:48:32;8.30;99.90
12031;DHT22;6076;50.872;4.714;2022-11-21T20:50:59;8.30;99.90
12031;DHT22;6076;50.872;4.714;2022-11-21T20:53:30;8.30;99.90
12031;DHT22;6076;50.872;4.714;2022-11-21T20:56:00;8.30;99.90
12031;DHT22;6076;50.872;4.714;2022-11-21T20:58:29;8.20;99.90
12031;DHT22;6076;50.872;4.714;2022-11-21T21:00:56;8.20;99.90
12031;DHT22;6076;50.872;4.714;2022-11-21T21:03:32;8.20;99.90
12031;DHT22;6076;50.872;4.714;2022-11-21T21:06:01;8.20;99.90
12031;DHT22;6076;50.872;4.714;2022-11-21T21:08:29;8.30;99.90
12031;DHT22;6076;50.872;4.714;2022-11-21T21:11:02;8.30;99.90
12031;DHT22;6076;50.872;4.714;2022-11-21T21:13:29;8.20;99.90
12031;DHT22;6076;50.872;4.714;2022-11-21T21:16:03;8.30;99.90
12031;DHT22;6076;50.872;4.714;2022-11-21T21:18:32;8.30;99.90
12031;DHT22;6076;50.872;4.714;2022-11-21T21:21:05;8.20;99.90
12031;DHT22;6076;50.872;4.714;2022-11-21T21:23:33;8.30;99.90
12031;DHT22;6076;50.872;4.714;2022-11-21T21:26:11;8.30;99.90
12031;DHT22;6076;50.872;4.714;2022-11-21T21:28:41;8.40;99.90
12031;DHT22;6076;50.872;4.714;2022-11-21T21:31:10;8.30;99.90
12031;DHT22;6076;50.872;4.714;2022-11-21T21:33:37;8.40;99.90
12031;DHT22;6076;50.872;4.714;2022-11-21T21:36:07;8.40;99.90
12031;DHT22;6076;50.872;4.714;2022-11-21T21:38:35;8.40;99.90
12031;DHT22;6076;50.872;4.714;2022-11-21T21:41:08;8.40;99.90
12031;DHT22;6076;50.872;4.714;2022-11-21T21:43:37;8.30;99.90
12031;DHT22;6076;50.872;4.714;2022-11-21T21:46:05;8.40;99.90
12031;DHT22;6076;50.872;4.714;2022-11-21T21:48:32;8.40;99.90
12031;DHT22;6076;50.872;4.714;2022-11-21T21:51:02;8.40;99.90
12031;DHT22;6076;50.872;4.714;2022-11-21T21:53:29;8.40;99.90
12031;DHT22;6076;50.872;4.714;2022-11-21T21:55:58;8.30;99.90
12031;DHT22;6076;50.872;4.714;2022-11-21T21:58:27;8.40;99.90
12031;DHT22;6076;50.872;4.714;2022-11-21T22:01:02;8.40;99.90
12031;DHT22;6076;50.872;4.714;2022-11-21T22:03:30;8.40;99.90
12031;DHT22;6076;50.872;4.714;2022-11-21T22:06:01;8.40;99.90
12031;DHT22;6076;50.872;4.714;2022-11-21T22:08:30;8.40;99.90
12031;DHT22;6076;50.872;4.714;2022-11-21T22:11:01;8.40;99.90
12031;DHT22;6076;50.872;4.714;2022-11-21T22:13:29;8.30;99.90
12031;DHT22;6076;50.872;4.714;2022-11-21T22:15:57;8.30;99.90
12031;DHT22;6076;50.872;4.714;2022-11-21T22:18:28;8.20;99.90
12031;DHT22;6076;50.872;4.714;2022-11-21T22:20:56;8.20;99.90
12031;DHT22;6076;50.872;4.714;2022-11-21T22:23:23;8.20;99.90
12031;DHT22;6076;50.872;4.714;2022-11-21T22:25:54;8.10;99.90
12031;DHT22;6076;50.872;4.714;2022-11-21T22:28:22;8.10;99.90
12031;DHT22;6076;50.872;4.714;2022-11-21T22:30:56;8.00;99.90
12031;DHT22;6076;50.872;4.714;2022-11-21T22:33:25;8.00;99.90
12031;DHT22;6076;50.872;4.714;2022-11-21T22:35:58;8.10;99.90
12031;DHT22;6076;50.872;4.714;2022-11-21T22:38:26;8.10;99.90
12031;DHT22;6076;50.872;4.714;2022-11-21T22:41:00;8.00;99.90
12031;DHT22;6076;50.872;4.714;2022-11-21T22:43:27;8.00;99.90
12031;DHT22;6076;50.872;4.714;2022-11-21T22:45:58;8.10;99.90
12031;DHT22;6076;50.872;4.714;2022-11-21T22:48:27;7.90;99.90
12031;DHT22;6076;50.872;4.714;2022-11-21T22:50:54;7.80;99.90
12031;DHT22;6076;50.872;4.714;2022-11-21T22:53:22;7.90;99.90
12031;DHT22;6076;50.872;4.714;2022-11-21T22:55:57;7.90;99.90
12031;DHT22;6076;50.872;4.714;2022-11-21T22:58:25;7.90;99.90
12031;DHT22;6076;50.872;4.714;2022-11-21T23:00:58;7.90;99.90
12031;DHT22;6076;50.872;4.714;2022-11-21T23:03:28;8.00;99.90
12031;DHT22;6076;50.872;4.714;2022-11-21T23:06:00;7.90;99.90
12031;DHT22;6076;50.872;4.714;2022-11-21T23:08:28;7.90;99.90
12031;DHT22;6076;50.872;4.714;2022-11-21T23:11:02;7.90;99.90
12031;DHT22;6076;50.872;4.714;2022-11-21T23:13:30;7.90;99.90
12031;DHT22;6076;50.872;4.714;2022-11-21T23:15:57;7.90;99.90
12031;DHT22;6076;50.872;4.714;2022-11-21T23:18:24;7.80;99.90
12031;DHT22;6076;50.872;4.714;2022-11-21T23:20:53;7.70;99.90
12031;DHT22;6076;50.872;4.714;2022-11-21T23:23:21;7.90;99.90
12031;DHT22;6076;50.872;4.714;2022-11-21T23:25:50;7.70;99.90
12031;DHT22;6076;50.872;4.714;2022-11-21T23:28:18;7.70;99.90
12031;DHT22;6076;50.872;4.714;2022-11-21T23:30:47;7.70;99.90
12031;DHT22;6076;50.872;4.714;2022-11-21T23:35:50;7.60;99.90
12031;DHT22;6076;50.872;4.714;2022-11-21T23:38:18;7.70;99.90
12031;DHT22;6076;50.872;4.714;2022-11-21T23:40:47;7.70;99.90
12031;DHT22;6076;50.872;4.714;2022-11-21T23:43:15;7.70;99.90
12031;DHT22;6076;50.872;4.714;2022-11-21T23:45:43;7.70;99.90
12031;DHT22;6076;50.872;4.714;2022-11-21T23:48:11;7.70;99.90
12031;DHT22;6076;50.872;4.714;2022-11-21T23:50:39;7.70;99.90
12031;DHT22;6076;50.872;4.714;2022-11-21T23:53:07;7.70;99.90
12031;DHT22;6076;50.872;4.714;2022-11-21T23:55:36;7.60;99.90
12031;DHT22;6076;50.872;4.714;2022-11-21T23:58:03;7.70;99.90
